createdAt,value
2019-03-23T00:00:47.246Z,8.20
2019-03-23T00:03:15.683Z,8.20
2019-03-23T00:05:44.114Z,8.10
2019-03-23T00:08:12.534Z,8.10
2019-03-23T00:10:40.977Z,8.00
2019-03-23T00:13:09.403Z,8.00
2019-03-23T00:15:37.822Z,7.90
2019-03-23T00:18:06.251Z,7.80
2019-03-23T00:20:34.670Z,7.70
2019-03-23T00:23:03.095Z,7.80
2019-03-23T00:28:13.474Z,7.60
2019-03-23T00:30:41.951Z,7.50
2019-03-23T00:33:10.400Z,7.50
2019-03-23T00:35:38.859Z,7.50
2019-03-23T00:38:07.276Z,7.50
2019-03-23T00:40:35.728Z,7.50
2019-03-23T00:43:04.242Z,7.50
2019-03-23T00:45:32.679Z,7.40
2019-03-23T00:48:01.130Z,7.30
2019-03-23T00:50:29.633Z,7.30
2019-03-23T00:52:58.059Z,7.30
2019-03-23T00:55:26.554Z,7.20
2019-03-23T00:57:55.011Z,7.20
2019-03-23T01:00:23.454Z,7.20
2019-03-23T01:02:51.871Z,7.20
2019-03-23T01:05:20.568Z,7.20
2019-03-23T01:07:49.009Z,7.20
2019-03-23T01:10:17.478Z,7.20
2019-03-23T01:12:45.899Z,7.20
2019-03-23T01:15:14.776Z,7.20
2019-03-23T01:17:43.198Z,7.20
2019-03-23T01:20:13.166Z,7.10
2019-03-23T01:22:41.613Z,7.10
2019-03-23T01:25:11.070Z,7.00
2019-03-23T01:27:39.519Z,7.00
2019-03-23T01:30:11.737Z,7.00
2019-03-23T01:32:40.228Z,7.00
2019-03-23T01:35:09.044Z,7.00
2019-03-23T01:37:37.467Z,6.90
2019-03-23T01:40:07.325Z,6.90
2019-03-23T01:42:35.755Z,6.90
2019-03-23T01:45:06.815Z,6.90
2019-03-23T01:47:35.278Z,6.90
2019-03-23T01:50:06.225Z,6.90
2019-03-23T01:52:34.713Z,6.90
2019-03-23T01:55:04.330Z,6.90
2019-03-23T01:57:32.766Z,6.80
2019-03-23T02:00:01.204Z,6.90
2019-03-23T02:02:29.623Z,6.90
2019-03-23T02:04:58.043Z,6.90
2019-03-23T02:07:26.490Z,6.90
2019-03-23T02:09:54.927Z,6.80
2019-03-23T02:12:23.346Z,6.90
2019-03-23T02:14:51.798Z,6.90
2019-03-23T02:17:20.308Z,6.90
2019-03-23T02:19:48.755Z,6.90
2019-03-23T02:22:17.178Z,7.00
2019-03-23T02:24:45.622Z,7.00
2019-03-23T02:27:14.066Z,7.00
2019-03-23T02:29:42.541Z,7.00
2019-03-23T02:32:11.048Z,6.90
2019-03-23T02:34:39.486Z,6.90
2019-03-23T02:37:07.923Z,6.90
2019-03-23T02:39:36.370Z,6.90
2019-03-23T02:42:05.045Z,6.90
2019-03-23T02:44:33.488Z,6.80
2019-03-23T02:47:01.923Z,6.90
2019-03-23T02:49:30.372Z,6.80
2019-03-23T02:51:58.859Z,6.80
2019-03-23T02:54:27.298Z,6.80
2019-03-23T02:56:55.722Z,6.70
2019-03-23T02:59:24.147Z,6.70
2019-03-23T03:01:52.579Z,6.70
2019-03-23T03:04:21.022Z,6.70
2019-03-23T03:06:49.454Z,6.70
2019-03-23T03:09:17.915Z,6.80
2019-03-23T03:11:46.359Z,6.80
2019-03-23T03:14:34.204Z,6.70
2019-03-23T03:17:02.611Z,6.70
2019-03-23T03:19:31.054Z,6.70
2019-03-23T03:21:59.475Z,6.70
2019-03-23T03:24:27.906Z,6.70
2019-03-23T03:26:56.326Z,6.70
2019-03-23T03:29:24.751Z,6.60
2019-03-23T03:31:53.185Z,6.60
2019-03-23T03:34:21.636Z,6.60
2019-03-23T03:36:50.059Z,6.70
2019-03-23T03:39:18.516Z,6.80
2019-03-23T03:41:47.037Z,6.90
2019-03-23T03:44:15.524Z,7.00
2019-03-23T03:46:43.949Z,7.10
2019-03-23T03:49:13.130Z,7.20
2019-03-23T03:51:41.687Z,7.20
2019-03-23T03:54:10.123Z,7.30
2019-03-23T03:56:38.549Z,7.40
2019-03-23T03:59:06.976Z,7.50
2019-03-23T04:01:35.429Z,7.50
2019-03-23T04:04:03.851Z,7.50
2019-03-23T04:06:32.298Z,7.60
2019-03-23T04:09:00.714Z,7.80
2019-03-23T04:11:29.182Z,7.80
2019-03-23T04:13:57.591Z,7.90
2019-03-23T04:16:26.023Z,7.90
2019-03-23T04:18:54.506Z,7.90
2019-03-23T04:21:22.933Z,7.90
2019-03-23T04:23:51.376Z,8.00
2019-03-23T04:26:19.908Z,8.00
2019-03-23T04:28:48.390Z,8.10
2019-03-23T04:31:16.821Z,8.10
2019-03-23T04:33:45.266Z,8.10
2019-03-23T04:36:13.683Z,8.10
2019-03-23T04:38:42.123Z,8.20
2019-03-23T04:41:10.567Z,8.20
2019-03-23T04:43:39.003Z,8.20
2019-03-23T04:46:07.425Z,8.30
2019-03-23T04:48:35.859Z,8.30
2019-03-23T04:51:04.358Z,8.40
2019-03-23T04:53:32.806Z,8.40
2019-03-23T04:56:04.433Z,8.50
2019-03-23T04:58:32.894Z,8.50
2019-03-23T05:01:01.501Z,8.50
2019-03-23T05:03:29.950Z,8.50
2019-03-23T05:06:02.050Z,8.60
2019-03-23T05:08:33.555Z,8.60
2019-03-23T05:11:00.646Z,8.60
2019-03-23T05:13:29.089Z,8.60
2019-03-23T05:15:57.526Z,8.70
2019-03-23T05:18:25.946Z,8.70
2019-03-23T05:20:54.389Z,8.70
2019-03-23T05:23:22.837Z,8.70
2019-03-23T05:25:51.267Z,8.70
2019-03-23T05:28:19.706Z,8.80
2019-03-23T05:30:48.190Z,8.80
2019-03-23T05:33:16.627Z,8.80
2019-03-23T05:35:45.070Z,8.80
2019-03-23T05:38:13.495Z,8.90
2019-03-23T05:40:41.926Z,8.90
2019-03-23T05:43:10.398Z,8.90
2019-03-23T05:45:38.835Z,8.90
2019-03-23T05:48:07.280Z,8.90
2019-03-23T05:50:35.725Z,8.90
2019-03-23T05:53:04.206Z,9.00
2019-03-23T05:55:32.634Z,9.00
2019-03-23T05:58:01.090Z,9.00
2019-03-23T06:00:29.554Z,9.10
2019-03-23T06:02:57.979Z,9.00
2019-03-23T06:05:26.424Z,9.10
2019-03-23T06:07:54.862Z,9.10
2019-03-23T06:10:23.278Z,9.20
2019-03-23T06:12:51.726Z,9.20
2019-03-23T06:15:20.147Z,9.30
2019-03-23T06:17:48.610Z,9.30
2019-03-23T06:20:17.094Z,9.40
2019-03-23T06:22:45.523Z,9.40
2019-03-23T06:25:13.962Z,9.50
2019-03-23T06:27:42.375Z,9.50
2019-03-23T06:30:11.766Z,9.60
2019-03-23T06:32:40.200Z,9.70
2019-03-23T06:35:08.876Z,9.70
2019-03-23T06:37:37.291Z,9.80
2019-03-23T06:40:09.042Z,9.90
2019-03-23T06:42:37.489Z,10.00
2019-03-23T06:45:07.879Z,10.10
2019-03-23T06:47:36.295Z,10.20
2019-03-23T06:50:06.785Z,10.40
2019-03-23T06:52:35.232Z,10.40
2019-03-23T06:55:06.222Z,10.50
2019-03-23T06:57:34.662Z,10.60
2019-03-23T07:00:04.639Z,10.50
2019-03-23T07:02:33.072Z,10.70
2019-03-23T07:05:01.505Z,10.70
2019-03-23T07:07:29.953Z,10.70
2019-03-23T07:09:58.379Z,10.70
2019-03-23T07:12:26.798Z,10.70
2019-03-23T07:14:55.247Z,10.80
2019-03-23T07:17:23.683Z,10.80
2019-03-23T07:19:52.167Z,10.90
2019-03-23T07:22:20.602Z,10.90
2019-03-23T07:24:49.066Z,10.90
2019-03-23T07:27:17.577Z,10.90
2019-03-23T07:29:46.000Z,10.90
2019-03-23T07:32:14.442Z,10.90
2019-03-23T07:34:42.875Z,10.90
2019-03-23T07:37:11.303Z,10.90
2019-03-23T07:39:39.755Z,10.90
2019-03-23T07:42:08.197Z,10.90
2019-03-23T07:44:36.654Z,11.00
2019-03-23T07:47:05.138Z,11.00
2019-03-23T07:49:33.646Z,11.00
2019-03-23T07:52:02.083Z,11.00
2019-03-23T07:54:30.494Z,11.00
2019-03-23T07:56:58.962Z,11.10
2019-03-23T07:59:27.463Z,11.10
2019-03-23T08:01:55.914Z,11.20
2019-03-23T08:04:24.426Z,11.10
2019-03-23T08:06:52.858Z,11.10
2019-03-23T08:09:23.497Z,11.10
2019-03-23T08:11:51.485Z,11.20
2019-03-23T08:14:19.910Z,11.30
2019-03-23T08:16:48.353Z,11.30
2019-03-23T08:19:16.808Z,11.20
2019-03-23T08:21:45.250Z,11.20
2019-03-23T08:24:13.704Z,11.30
2019-03-23T08:26:42.154Z,11.40
2019-03-23T08:29:10.603Z,11.50
2019-03-23T08:31:39.065Z,11.60
2019-03-23T08:34:07.501Z,11.60
2019-03-23T08:36:36.000Z,11.60
2019-03-23T08:39:05.783Z,11.60
2019-03-23T08:41:34.238Z,11.70
2019-03-23T08:44:02.683Z,11.70
2019-03-23T08:46:31.126Z,11.80
2019-03-23T08:48:59.558Z,11.90
2019-03-23T08:51:28.011Z,12.00
2019-03-23T08:53:56.466Z,12.00
2019-03-23T08:56:24.911Z,12.00
2019-03-23T08:58:53.358Z,11.90
2019-03-23T09:01:21.801Z,11.80
2019-03-23T09:03:52.776Z,11.70
2019-03-23T09:06:20.463Z,11.70
2019-03-23T09:08:48.902Z,11.80
2019-03-23T09:11:20.654Z,11.80
2019-03-23T09:13:47.522Z,11.60
2019-03-23T09:16:15.979Z,11.70
2019-03-23T09:18:44.398Z,11.70
2019-03-23T09:21:13.015Z,11.60
2019-03-23T09:23:41.534Z,11.50
2019-03-23T09:26:09.985Z,11.40
2019-03-23T09:28:38.410Z,11.30
2019-03-23T09:31:06.823Z,11.30
2019-03-23T09:33:35.256Z,11.20
2019-03-23T09:36:03.731Z,11.30
2019-03-23T09:38:32.176Z,11.30
2019-03-23T09:41:00.620Z,11.30
2019-03-23T09:43:29.131Z,11.40
2019-03-23T09:48:31.347Z,11.50
2019-03-23T09:50:59.778Z,11.50
2019-03-23T09:53:28.204Z,11.50
2019-03-23T09:55:56.638Z,11.60
2019-03-23T09:58:25.091Z,11.80
2019-03-23T10:00:53.554Z,12.00
2019-03-23T10:03:21.998Z,12.20
2019-03-23T10:05:50.412Z,12.40
2019-03-23T10:08:18.838Z,12.50
2019-03-23T10:10:47.282Z,12.70
2019-03-23T10:13:15.717Z,12.80
2019-03-23T10:15:44.190Z,13.00
2019-03-23T10:18:12.638Z,13.10
2019-03-23T10:20:41.082Z,13.20
2019-03-23T10:23:09.610Z,13.20
2019-03-23T10:25:38.114Z,13.50
2019-03-23T10:28:06.550Z,13.70
2019-03-23T10:30:35.114Z,14.10
2019-03-23T10:33:03.534Z,14.30
2019-03-23T10:35:31.982Z,14.60
2019-03-23T10:38:00.418Z,14.90
2019-03-23T10:40:32.799Z,14.70
2019-03-23T10:42:58.998Z,14.70
2019-03-23T10:45:27.571Z,14.50
2019-03-23T10:50:24.458Z,14.50
2019-03-23T10:52:52.902Z,14.50
2019-03-23T10:55:21.326Z,14.50
2019-03-23T10:57:49.756Z,14.50
2019-03-23T11:00:18.354Z,14.50
2019-03-23T11:02:46.867Z,14.60
2019-03-23T11:05:15.589Z,14.50
2019-03-23T11:07:44.033Z,14.60
2019-03-23T11:10:13.501Z,14.40
2019-03-23T11:12:41.943Z,14.20
2019-03-23T11:15:11.225Z,14.30
2019-03-23T11:17:39.639Z,14.10
2019-03-23T11:20:11.230Z,14.00
2019-03-23T11:22:39.681Z,14.10
2019-03-23T11:25:08.635Z,14.30
2019-03-23T11:27:37.072Z,14.40
2019-03-23T11:30:07.839Z,14.30
2019-03-23T11:32:36.254Z,14.40
2019-03-23T11:35:08.003Z,14.30
2019-03-23T11:37:36.932Z,14.30
2019-03-23T11:40:08.306Z,14.40
2019-03-23T11:42:36.758Z,14.50
2019-03-23T11:45:07.119Z,14.40
2019-03-23T11:47:35.542Z,14.50
2019-03-23T11:50:04.629Z,14.50
2019-03-23T11:52:33.063Z,14.50
2019-03-23T11:55:01.517Z,14.80
2019-03-23T11:57:29.959Z,14.90
2019-03-23T11:59:58.442Z,14.60
2019-03-23T12:02:26.878Z,14.60
2019-03-23T12:04:55.462Z,14.70
2019-03-23T12:07:23.906Z,15.00
2019-03-23T12:09:52.354Z,14.90
2019-03-23T12:12:20.780Z,14.80
2019-03-23T12:14:49.194Z,15.30
2019-03-23T12:17:17.656Z,15.50
2019-03-23T12:19:46.085Z,15.60
2019-03-23T12:22:14.515Z,15.50
2019-03-23T12:24:43.863Z,15.60
2019-03-23T12:27:12.285Z,15.40
2019-03-23T12:29:40.722Z,15.10
2019-03-23T12:32:09.161Z,15.00
2019-03-23T12:34:37.614Z,14.80
2019-03-23T12:37:06.129Z,14.60
2019-03-23T12:39:34.573Z,14.40
2019-03-23T12:42:02.991Z,14.20
2019-03-23T12:44:31.442Z,14.30
2019-03-23T12:46:59.871Z,14.50
2019-03-23T12:49:28.314Z,14.60
2019-03-23T12:51:56.751Z,14.40
2019-03-23T12:54:25.190Z,14.30
2019-03-23T12:56:53.623Z,14.20
2019-03-23T12:59:22.066Z,14.20
2019-03-23T13:01:50.507Z,14.40
2019-03-23T13:04:18.965Z,14.40
2019-03-23T13:06:47.378Z,14.10
2019-03-23T13:09:15.818Z,14.30
2019-03-23T13:11:44.243Z,14.40
2019-03-23T13:14:12.688Z,14.50
2019-03-23T13:16:41.129Z,14.60
2019-03-23T13:19:09.551Z,14.60
2019-03-23T13:21:37.984Z,14.60
2019-03-23T13:24:06.421Z,14.50
2019-03-23T13:26:34.847Z,14.50
2019-03-23T13:29:03.273Z,14.20
2019-03-23T13:31:31.687Z,14.20
2019-03-23T13:34:00.154Z,14.30
2019-03-23T13:36:28.629Z,14.30
2019-03-23T13:38:57.082Z,14.40
2019-03-23T13:41:25.530Z,14.60
2019-03-23T13:43:53.946Z,14.70
2019-03-23T13:46:22.381Z,14.50
2019-03-23T13:48:50.853Z,14.20
2019-03-23T13:51:19.327Z,14.10
2019-03-23T13:53:47.758Z,13.90
2019-03-23T13:56:16.201Z,13.70
2019-03-23T13:58:44.623Z,13.70
2019-03-23T14:01:13.042Z,13.60
2019-03-23T14:03:41.474Z,13.40
2019-03-23T14:06:09.892Z,13.30
2019-03-23T14:08:38.344Z,13.30
2019-03-23T14:11:06.776Z,13.40
2019-03-23T14:13:35.238Z,13.40
2019-03-23T14:16:06.959Z,13.50
2019-03-23T14:18:35.879Z,13.40
2019-03-23T14:21:04.512Z,13.40
2019-03-23T14:23:32.958Z,13.30
2019-03-23T14:26:01.390Z,13.40
2019-03-23T14:28:29.847Z,13.20
2019-03-23T14:30:58.347Z,13.10
2019-03-23T14:33:26.838Z,13.00
2019-03-23T14:35:55.296Z,12.80
2019-03-23T14:38:23.743Z,12.80
2019-03-23T14:40:52.157Z,12.80
2019-03-23T14:43:20.601Z,12.70
2019-03-23T14:45:49.061Z,12.80
2019-03-23T14:48:17.487Z,12.80
2019-03-23T14:50:45.902Z,12.70
2019-03-23T14:53:14.338Z,12.70
2019-03-23T14:55:42.752Z,12.70
2019-03-23T14:58:11.174Z,12.60
2019-03-23T15:00:39.606Z,12.40
2019-03-23T15:03:08.045Z,12.30
2019-03-23T15:05:36.474Z,12.30
2019-03-23T15:08:04.894Z,12.10
2019-03-23T15:10:33.346Z,12.10
2019-03-23T15:13:01.838Z,12.20
2019-03-23T15:15:30.260Z,12.30
2019-03-23T15:17:58.729Z,12.10
2019-03-23T15:20:27.146Z,12.10
2019-03-23T15:22:55.602Z,12.20
2019-03-23T15:25:24.039Z,12.10
2019-03-23T15:27:52.459Z,12.10
2019-03-23T15:30:20.899Z,12.30
2019-03-23T15:32:49.414Z,12.30
2019-03-23T15:35:17.857Z,12.30
2019-03-23T15:37:46.307Z,12.40
2019-03-23T15:40:14.890Z,12.40
2019-03-23T15:42:43.327Z,12.40
2019-03-23T15:45:12.216Z,12.40
2019-03-23T15:47:40.674Z,12.40
2019-03-23T15:50:09.595Z,12.20
2019-03-23T15:52:38.049Z,12.30
2019-03-23T15:55:07.098Z,12.20
2019-03-23T15:57:36.306Z,12.00
2019-03-23T16:00:07.822Z,11.90
2019-03-23T16:02:36.371Z,11.90
2019-03-23T16:05:06.777Z,11.90
2019-03-23T16:07:35.591Z,11.80
2019-03-23T16:10:07.279Z,11.50
2019-03-23T16:12:37.790Z,11.30
2019-03-23T16:15:09.387Z,11.10
2019-03-23T16:17:37.823Z,11.10
2019-03-23T16:20:08.873Z,10.90
2019-03-23T16:22:37.645Z,10.70
2019-03-23T16:25:07.830Z,10.80
2019-03-23T16:27:36.450Z,10.80
2019-03-23T16:30:07.771Z,10.70
2019-03-23T16:32:48.611Z,10.60
2019-03-23T16:35:17.059Z,10.80
2019-03-23T16:37:45.479Z,10.90
2019-03-23T16:40:15.937Z,10.70
2019-03-23T16:42:45.517Z,10.50
2019-03-23T16:45:14.766Z,10.60
2019-03-23T16:47:43.213Z,10.60
2019-03-23T16:50:12.101Z,10.60
2019-03-23T16:52:40.528Z,10.60
2019-03-23T16:58:15.565Z,10.40
2019-03-23T17:00:37.655Z,10.40
2019-03-23T17:03:06.725Z,10.30
2019-03-23T17:05:36.477Z,10.20
2019-03-23T17:08:05.281Z,10.20
2019-03-23T17:10:33.864Z,10.20
2019-03-23T17:13:02.314Z,10.10
2019-03-23T17:15:30.726Z,9.90
2019-03-23T17:17:59.145Z,9.80
2019-03-23T17:20:27.594Z,9.80
2019-03-23T17:22:56.010Z,9.60
2019-03-23T17:25:24.461Z,9.40
2019-03-23T17:27:52.894Z,9.30
2019-03-23T17:30:21.327Z,9.30
2019-03-23T17:32:49.748Z,9.20
2019-03-23T17:35:18.171Z,9.20
2019-03-23T17:37:46.616Z,9.10
2019-03-23T17:40:15.092Z,8.90
2019-03-23T17:42:43.510Z,8.90
2019-03-23T17:45:12.392Z,8.80
2019-03-23T17:47:40.884Z,8.70
2019-03-23T17:50:10.931Z,8.60
2019-03-23T17:52:39.388Z,8.50
2019-03-23T17:58:04.907Z,8.40
2019-03-23T18:00:33.357Z,8.40
2019-03-23T18:03:01.797Z,8.20
2019-03-23T18:05:30.238Z,8.20
2019-03-23T18:07:58.838Z,8.10
2019-03-23T18:10:28.287Z,8.00
2019-03-23T18:12:56.887Z,8.10
2019-03-23T18:15:25.466Z,8.00
2019-03-23T18:17:53.906Z,8.00
2019-03-23T18:20:22.344Z,7.90
2019-03-23T18:22:50.759Z,7.90
2019-03-23T18:25:19.173Z,7.90
2019-03-23T18:27:47.606Z,7.80
2019-03-23T18:30:19.098Z,7.80
2019-03-23T18:32:47.543Z,7.70
2019-03-23T18:35:15.996Z,7.70
2019-03-23T18:37:44.506Z,7.60
2019-03-23T18:40:13.051Z,7.50
2019-03-23T18:42:41.549Z,7.50
2019-03-23T18:45:10.126Z,7.40
2019-03-23T18:47:38.542Z,7.50
2019-03-23T18:50:07.302Z,7.50
2019-03-23T18:52:35.741Z,7.50
2019-03-23T18:55:06.509Z,7.50
2019-03-23T18:57:34.942Z,7.60
2019-03-23T19:00:06.017Z,7.60
2019-03-23T19:02:34.468Z,7.60
2019-03-23T19:05:02.911Z,7.50
2019-03-23T19:07:31.407Z,7.50
2019-03-23T19:09:59.858Z,7.40
2019-03-23T19:12:28.300Z,7.40
2019-03-23T19:14:56.706Z,7.30
2019-03-23T19:17:25.134Z,7.20
2019-03-23T19:19:53.578Z,7.10
2019-03-23T19:22:22.016Z,7.10
2019-03-23T19:24:50.468Z,7.10
2019-03-23T19:27:18.897Z,7.00
2019-03-23T19:29:47.318Z,7.00
2019-03-23T19:32:15.762Z,7.00
2019-03-23T19:34:44.180Z,6.90
2019-03-23T19:37:12.654Z,6.90
2019-03-23T19:39:41.170Z,6.80
2019-03-23T19:42:09.583Z,6.80
2019-03-23T19:44:38.030Z,6.80
2019-03-23T19:47:06.466Z,6.80
2019-03-23T19:49:34.924Z,6.70
2019-03-23T19:52:03.358Z,6.70
2019-03-23T19:54:31.786Z,6.70
2019-03-23T19:57:00.248Z,6.60
2019-03-23T19:59:28.655Z,6.60
2019-03-23T20:01:57.078Z,6.60
2019-03-23T20:04:25.521Z,6.60
2019-03-23T20:06:53.963Z,6.60
2019-03-23T20:09:43.270Z,6.50
2019-03-23T20:12:11.985Z,6.40
2019-03-23T20:14:41.739Z,6.40
2019-03-23T20:17:10.314Z,6.30
2019-03-23T20:19:38.740Z,6.30
2019-03-23T20:22:07.155Z,6.30
2019-03-23T20:24:35.578Z,6.30
2019-03-23T20:27:04.194Z,6.30
2019-03-23T20:29:32.793Z,6.30
2019-03-23T20:32:01.227Z,6.40
2019-03-23T20:34:29.641Z,6.30
2019-03-23T20:36:58.067Z,6.30
2019-03-23T20:39:26.488Z,6.40
2019-03-23T20:41:54.908Z,6.30
2019-03-23T20:44:23.450Z,6.30
2019-03-23T20:46:52.038Z,6.30
2019-03-23T20:49:21.091Z,6.30
2019-03-23T20:51:49.982Z,6.20
2019-03-23T20:54:18.423Z,6.20
2019-03-23T20:56:46.847Z,6.10
2019-03-23T20:59:15.286Z,6.20
2019-03-23T21:01:43.729Z,6.20
2019-03-23T21:04:12.301Z,6.10
2019-03-23T21:06:40.746Z,6.00
2019-03-23T21:09:09.182Z,6.10
2019-03-23T21:11:37.626Z,6.10
2019-03-23T21:14:06.071Z,6.00
2019-03-23T21:19:35.432Z,6.00
2019-03-23T21:22:04.048Z,5.90
2019-03-23T21:24:32.463Z,5.90
2019-03-23T21:27:00.894Z,5.80
2019-03-23T21:29:29.410Z,5.80
2019-03-23T21:31:57.830Z,5.80
2019-03-23T21:34:26.242Z,5.80
2019-03-23T21:36:54.690Z,5.80
2019-03-23T21:39:23.139Z,5.70
2019-03-23T21:41:51.562Z,5.70
2019-03-23T21:44:30.481Z,5.70
2019-03-23T21:46:51.751Z,5.70
2019-03-23T21:49:20.182Z,5.60
2019-03-23T21:51:48.636Z,5.60
2019-03-23T21:54:17.066Z,5.50
2019-03-23T21:56:45.495Z,5.50
2019-03-23T21:59:13.940Z,5.40
2019-03-23T22:01:42.373Z,5.40
2019-03-23T22:04:10.821Z,5.30
2019-03-23T22:06:39.230Z,5.40
2019-03-23T22:09:07.654Z,5.40
2019-03-23T22:11:36.090Z,5.40
2019-03-23T22:14:04.710Z,5.50
2019-03-23T22:16:33.174Z,5.50
2019-03-23T22:19:01.615Z,5.40
2019-03-23T22:21:30.038Z,5.30
2019-03-23T22:23:58.485Z,5.30
2019-03-23T22:26:26.911Z,5.30
2019-03-23T22:28:55.326Z,5.30
2019-03-23T22:31:23.747Z,5.20
2019-03-23T22:33:52.182Z,5.20
2019-03-23T22:36:20.633Z,5.10
2019-03-23T22:38:49.050Z,5.10
2019-03-23T22:41:17.482Z,5.10
2019-03-23T22:43:45.930Z,5.10
2019-03-23T22:46:14.343Z,5.10
2019-03-23T22:48:42.767Z,5.10
2019-03-23T22:51:11.214Z,5.00
2019-03-23T22:53:39.668Z,5.00
2019-03-23T22:56:08.114Z,4.90
2019-03-23T22:58:36.529Z,4.80
2019-03-23T23:01:05.122Z,4.80
2019-03-23T23:03:52.898Z,4.80
2019-03-23T23:06:21.341Z,4.80
2019-03-23T23:08:49.762Z,4.90
2019-03-23T23:11:18.190Z,5.00
2019-03-23T23:13:46.675Z,5.10
2019-03-23T23:16:15.171Z,5.10
2019-03-23T23:18:43.602Z,5.20
2019-03-23T23:21:12.050Z,5.10
2019-03-23T23:23:40.462Z,5.00
2019-03-23T23:26:08.882Z,4.90
2019-03-23T23:28:37.298Z,4.80
2019-03-23T23:31:05.794Z,4.70
2019-03-23T23:33:34.231Z,4.70
2019-03-23T23:36:02.645Z,4.70
2019-03-23T23:38:31.064Z,4.80
2019-03-23T23:40:59.483Z,4.80
2019-03-23T23:43:27.903Z,4.70
2019-03-23T23:45:56.389Z,4.70
2019-03-23T23:48:24.798Z,4.60
2019-03-23T23:50:53.224Z,4.50
2019-03-23T23:53:21.639Z,4.50
2019-03-23T23:55:50.062Z,4.50
2019-03-23T23:58:18.511Z,4.50
